sensor_id;sensor_type;location;lat;lon;timestamp;P1;durP1;ratioP1;P2;durP2;ratioP2
68247;SDS011;55064;49.636;12.164;2023-07-20T00:02:11;7.97;;;3.30;;
68247;SDS011;55064;49.636;12.164;2023-07-20T00:04:37;7.77;;;3.40;;
68247;SDS011;55064;49.636;12.164;2023-07-20T00:07:03;7.25;;;3.38;;
68247;SDS011;55064;49.636;12.164;2023-07-20T00:09:29;8.60;;;3.65;;
68247;SDS011;55064;49.636;12.164;2023-07-20T00:11:54;7.73;;;3.10;;
68247;SDS011;55064;49.636;12.164;2023-07-20T00:14:20;7.33;;;3.30;;
68247;SDS011;55064;49.636;12.164;2023-07-20T00:16:46;7.43;;;3.65;;
68247;SDS011;55064;49.636;12.164;2023-07-20T00:19:20;8.13;;;3.55;;
68247;SDS011;55064;49.636;12.164;2023-07-20T00:21:47;7.13;;;3.13;;
68247;SDS011;55064;49.636;12.164;2023-07-20T00:24:13;7.85;;;3.78;;
68247;SDS011;55064;49.636;12.164;2023-07-20T00:26:38;7.63;;;3.50;;
68247;SDS011;55064;49.636;12.164;2023-07-20T00:29:05;7.67;;;3.50;;
68247;SDS011;55064;49.636;12.164;2023-07-20T00:31:30;8.77;;;3.38;;
68247;SDS011;55064;49.636;12.164;2023-07-20T00:34:01;6.78;;;3.42;;
68247;SDS011;55064;49.636;12.164;2023-07-20T00:36:26;6.87;;;3.73;;
68247;SDS011;55064;49.636;12.164;2023-07-20T00:38:51;7.10;;;3.63;;
68247;SDS011;55064;49.636;12.164;2023-07-20T00:41:16;6.77;;;3.20;;
68247;SDS011;55064;49.636;12.164;2023-07-20T00:43:42;7.77;;;3.47;;
68247;SDS011;55064;49.636;12.164;2023-07-20T00:46:08;9.30;;;3.93;;
68247;SDS011;55064;49.636;12.164;2023-07-20T00:48:34;6.90;;;3.42;;
68247;SDS011;55064;49.636;12.164;2023-07-20T00:51:00;9.68;;;3.60;;
68247;SDS011;55064;49.636;12.164;2023-07-20T00:53:27;8.38;;;3.83;;
68247;SDS011;55064;49.636;12.164;2023-07-20T00:55:53;8.20;;;3.90;;
68247;SDS011;55064;49.636;12.164;2023-07-20T00:58:19;6.80;;;3.63;;
68247;SDS011;55064;49.636;12.164;2023-07-20T01:00:44;7.37;;;3.90;;
68247;SDS011;55064;49.636;12.164;2023-07-20T01:03:10;8.03;;;3.87;;
68247;SDS011;55064;49.636;12.164;2023-07-20T01:05:38;7.10;;;4.10;;
68247;SDS011;55064;49.636;12.164;2023-07-20T01:08:14;8.90;;;3.90;;
68247;SDS011;55064;49.636;12.164;2023-07-20T01:10:54;8.45;;;3.88;;
68247;SDS011;55064;49.636;12.164;2023-07-20T01:13:24;7.95;;;3.58;;
68247;SDS011;55064;49.636;12.164;2023-07-20T01:15:56;8.30;;;4.07;;
68247;SDS011;55064;49.636;12.164;2023-07-20T01:18:24;8.77;;;4.03;;
68247;SDS011;55064;49.636;12.164;2023-07-20T01:20:50;8.60;;;3.70;;
68247;SDS011;55064;49.636;12.164;2023-07-20T01:26:26;9.40;;;3.70;;
68247;SDS011;55064;49.636;12.164;2023-07-20T01:32:00;8.90;;;3.85;;
68247;SDS011;55064;49.636;12.164;2023-07-20T01:34:30;9.27;;;3.65;;
68247;SDS011;55064;49.636;12.164;2023-07-20T01:37:00;8.23;;;3.75;;
68247;SDS011;55064;49.636;12.164;2023-07-20T01:39:30;7.82;;;3.58;;
68247;SDS011;55064;49.636;12.164;2023-07-20T01:41:59;9.47;;;3.73;;
68247;SDS011;55064;49.636;12.164;2023-07-20T01:44:25;7.65;;;3.60;;
68247;SDS011;55064;49.636;12.164;2023-07-20T01:46:53;8.43;;;3.70;;
68247;SDS011;55064;49.636;12.164;2023-07-20T01:49:18;8.60;;;3.90;;
68247;SDS011;55064;49.636;12.164;2023-07-20T01:51:44;7.00;;;3.70;;
68247;SDS011;55064;49.636;12.164;2023-07-20T01:54:12;7.20;;;3.73;;
68247;SDS011;55064;49.636;12.164;2023-07-20T01:56:42;7.43;;;3.60;;
68247;SDS011;55064;49.636;12.164;2023-07-20T01:59:09;8.15;;;3.60;;
68247;SDS011;55064;49.636;12.164;2023-07-20T02:01:35;7.33;;;3.53;;
68247;SDS011;55064;49.636;12.164;2023-07-20T02:04:03;9.57;;;3.47;;
68247;SDS011;55064;49.636;12.164;2023-07-20T02:06:28;7.27;;;3.60;;
68247;SDS011;55064;49.636;12.164;2023-07-20T02:08:53;7.67;;;3.60;;
68247;SDS011;55064;49.636;12.164;2023-07-20T02:11:19;6.90;;;3.38;;
68247;SDS011;55064;49.636;12.164;2023-07-20T02:13:44;7.37;;;3.80;;
68247;SDS011;55064;49.636;12.164;2023-07-20T02:16:09;6.77;;;3.50;;
68247;SDS011;55064;49.636;12.164;2023-07-20T02:18:37;7.22;;;3.65;;
68247;SDS011;55064;49.636;12.164;2023-07-20T02:21:04;7.03;;;3.80;;
68247;SDS011;55064;49.636;12.164;2023-07-20T02:23:32;8.23;;;3.60;;
68247;SDS011;55064;49.636;12.164;2023-07-20T02:25:57;8.70;;;3.30;;
68247;SDS011;55064;49.636;12.164;2023-07-20T02:28:23;6.50;;;3.57;;
68247;SDS011;55064;49.636;12.164;2023-07-20T02:30:48;8.17;;;3.73;;
68247;SDS011;55064;49.636;12.164;2023-07-20T02:33:14;8.88;;;3.80;;
68247;SDS011;55064;49.636;12.164;2023-07-20T02:35:42;9.02;;;3.78;;
68247;SDS011;55064;49.636;12.164;2023-07-20T02:38:07;9.07;;;3.97;;
68247;SDS011;55064;49.636;12.164;2023-07-20T02:40:35;7.90;;;3.50;;
68247;SDS011;55064;49.636;12.164;2023-07-20T02:43:00;7.28;;;3.72;;
68247;SDS011;55064;49.636;12.164;2023-07-20T02:45:29;9.75;;;3.65;;
68247;SDS011;55064;49.636;12.164;2023-07-20T02:47:59;10.30;;;3.95;;
68247;SDS011;55064;49.636;12.164;2023-07-20T02:50:26;7.70;;;3.80;;
68247;SDS011;55064;49.636;12.164;2023-07-20T02:52:56;8.30;;;3.50;;
68247;SDS011;55064;49.636;12.164;2023-07-20T02:55:21;7.57;;;4.20;;
68247;SDS011;55064;49.636;12.164;2023-07-20T02:57:49;7.13;;;3.50;;
68247;SDS011;55064;49.636;12.164;2023-07-20T03:00:15;8.45;;;4.15;;
68247;SDS011;55064;49.636;12.164;2023-07-20T03:02:41;8.17;;;4.00;;
68247;SDS011;55064;49.636;12.164;2023-07-20T03:05:11;9.00;;;3.80;;
68247;SDS011;55064;49.636;12.164;2023-07-20T03:07:39;8.13;;;4.18;;
68247;SDS011;55064;49.636;12.164;2023-07-20T03:10:05;9.13;;;4.30;;
68247;SDS011;55064;49.636;12.164;2023-07-20T03:12:34;9.50;;;4.15;;
68247;SDS011;55064;49.636;12.164;2023-07-20T03:15:01;7.93;;;3.87;;
68247;SDS011;55064;49.636;12.164;2023-07-20T03:17:29;9.75;;;4.35;;
68247;SDS011;55064;49.636;12.164;2023-07-20T03:19:57;9.60;;;4.13;;
68247;SDS011;55064;49.636;12.164;2023-07-20T03:22:24;7.18;;;3.80;;
68247;SDS011;55064;49.636;12.164;2023-07-20T03:24:50;8.53;;;4.10;;
68247;SDS011;55064;49.636;12.164;2023-07-20T03:27:17;7.63;;;3.80;;
68247;SDS011;55064;49.636;12.164;2023-07-20T03:29:42;11.73;;;4.07;;
68247;SDS011;55064;49.636;12.164;2023-07-20T03:32:09;7.93;;;4.53;;
68247;SDS011;55064;49.636;12.164;2023-07-20T03:34:34;8.82;;;4.07;;
68247;SDS011;55064;49.636;12.164;2023-07-20T03:37:00;9.30;;;4.40;;
68247;SDS011;55064;49.636;12.164;2023-07-20T03:39:26;12.00;;;4.35;;
68247;SDS011;55064;49.636;12.164;2023-07-20T03:41:51;9.73;;;4.03;;
68247;SDS011;55064;49.636;12.164;2023-07-20T03:44:17;8.63;;;3.90;;
68247;SDS011;55064;49.636;12.164;2023-07-20T03:46:42;7.73;;;4.27;;
68247;SDS011;55064;49.636;12.164;2023-07-20T03:49:08;10.02;;;4.60;;
68247;SDS011;55064;49.636;12.164;2023-07-20T03:51:35;8.90;;;4.20;;
68247;SDS011;55064;49.636;12.164;2023-07-20T03:54:01;10.35;;;4.35;;
68247;SDS011;55064;49.636;12.164;2023-07-20T03:56:27;11.18;;;4.20;;
68247;SDS011;55064;49.636;12.164;2023-07-20T03:58:59;11.27;;;4.37;;
68247;SDS011;55064;49.636;12.164;2023-07-20T04:01:25;9.10;;;4.40;;
68247;SDS011;55064;49.636;12.164;2023-07-20T04:03:50;9.27;;;4.80;;
68247;SDS011;55064;49.636;12.164;2023-07-20T04:06:16;8.00;;;4.30;;
68247;SDS011;55064;49.636;12.164;2023-07-20T04:08:42;8.77;;;4.37;;
68247;SDS011;55064;49.636;12.164;2023-07-20T04:11:09;8.88;;;4.50;;
68247;SDS011;55064;49.636;12.164;2023-07-20T04:13:34;8.63;;;4.15;;
68247;SDS011;55064;49.636;12.164;2023-07-20T04:16:00;7.57;;;3.77;;
68247;SDS011;55064;49.636;12.164;2023-07-20T04:18:25;8.37;;;4.13;;
68247;SDS011;55064;49.636;12.164;2023-07-20T04:20:51;9.20;;;4.30;;
68247;SDS011;55064;49.636;12.164;2023-07-20T04:23:18;9.13;;;3.90;;
68247;SDS011;55064;49.636;12.164;2023-07-20T04:25:44;9.27;;;4.37;;
68247;SDS011;55064;49.636;12.164;2023-07-20T04:28:12;8.77;;;4.20;;
68247;SDS011;55064;49.636;12.164;2023-07-20T04:30:38;7.33;;;4.10;;
68247;SDS011;55064;49.636;12.164;2023-07-20T04:33:07;8.18;;;4.28;;
68247;SDS011;55064;49.636;12.164;2023-07-20T04:35:45;9.63;;;4.70;;
68247;SDS011;55064;49.636;12.164;2023-07-20T04:38:14;8.77;;;4.30;;
68247;SDS011;55064;49.636;12.164;2023-07-20T04:40:43;7.50;;;3.63;;
68247;SDS011;55064;49.636;12.164;2023-07-20T04:43:14;9.05;;;4.47;;
68247;SDS011;55064;49.636;12.164;2023-07-20T04:45:40;10.25;;;4.40;;
68247;SDS011;55064;49.636;12.164;2023-07-20T04:48:07;8.20;;;4.23;;
68247;SDS011;55064;49.636;12.164;2023-07-20T04:50:42;8.85;;;4.63;;
68247;SDS011;55064;49.636;12.164;2023-07-20T04:53:09;10.98;;;4.28;;
68247;SDS011;55064;49.636;12.164;2023-07-20T04:55:38;7.80;;;4.20;;
68247;SDS011;55064;49.636;12.164;2023-07-20T05:01:33;9.17;;;4.90;;
68247;SDS011;55064;49.636;12.164;2023-07-20T05:03:59;11.68;;;4.57;;
68247;SDS011;55064;49.636;12.164;2023-07-20T05:06:26;7.82;;;4.15;;
68247;SDS011;55064;49.636;12.164;2023-07-20T05:08:51;7.47;;;4.18;;
68247;SDS011;55064;49.636;12.164;2023-07-20T05:11:20;9.65;;;4.45;;
68247;SDS011;55064;49.636;12.164;2023-07-20T05:13:46;8.60;;;4.80;;
68247;SDS011;55064;49.636;12.164;2023-07-20T05:19:36;9.25;;;5.13;;
68247;SDS011;55064;49.636;12.164;2023-07-20T05:22:17;10.40;;;5.00;;
68247;SDS011;55064;49.636;12.164;2023-07-20T05:24:51;8.18;;;4.57;;
68247;SDS011;55064;49.636;12.164;2023-07-20T05:33:32;10.60;;;5.28;;
68247;SDS011;55064;49.636;12.164;2023-07-20T05:36:00;10.37;;;4.60;;
68247;SDS011;55064;49.636;12.164;2023-07-20T05:38:26;10.63;;;5.13;;
68247;SDS011;55064;49.636;12.164;2023-07-20T05:40:51;10.67;;;4.50;;
68247;SDS011;55064;49.636;12.164;2023-07-20T05:43:16;8.13;;;4.33;;
68247;SDS011;55064;49.636;12.164;2023-07-20T05:45:44;9.15;;;4.55;;
68247;SDS011;55064;49.636;12.164;2023-07-20T05:48:12;8.85;;;4.20;;
68247;SDS011;55064;49.636;12.164;2023-07-20T05:50:42;9.53;;;4.37;;
68247;SDS011;55064;49.636;12.164;2023-07-20T05:53:11;9.43;;;4.30;;
68247;SDS011;55064;49.636;12.164;2023-07-20T05:55:36;7.00;;;3.93;;
68247;SDS011;55064;49.636;12.164;2023-07-20T05:58:01;7.07;;;3.63;;
68247;SDS011;55064;49.636;12.164;2023-07-20T06:00:29;7.10;;;3.53;;
68247;SDS011;55064;49.636;12.164;2023-07-20T06:02:54;7.93;;;3.70;;
68247;SDS011;55064;49.636;12.164;2023-07-20T06:05:22;8.27;;;3.50;;
68247;SDS011;55064;49.636;12.164;2023-07-20T06:07:48;7.15;;;3.38;;
68247;SDS011;55064;49.636;12.164;2023-07-20T06:10:15;7.35;;;3.40;;
68247;SDS011;55064;49.636;12.164;2023-07-20T06:12:43;7.13;;;3.33;;
68247;SDS011;55064;49.636;12.164;2023-07-20T06:15:28;7.15;;;3.30;;
68247;SDS011;55064;49.636;12.164;2023-07-20T06:18:02;7.47;;;3.28;;
68247;SDS011;55064;49.636;12.164;2023-07-20T06:20:28;6.40;;;3.20;;
68247;SDS011;55064;49.636;12.164;2023-07-20T06:22:54;8.30;;;3.40;;
68247;SDS011;55064;49.636;12.164;2023-07-20T06:25:19;7.43;;;3.20;;
68247;SDS011;55064;49.636;12.164;2023-07-20T06:27:48;7.68;;;3.40;;
68247;SDS011;55064;49.636;12.164;2023-07-20T06:30:15;7.85;;;3.83;;
68247;SDS011;55064;49.636;12.164;2023-07-20T06:32:40;7.72;;;3.70;;
68247;SDS011;55064;49.636;12.164;2023-07-20T06:35:06;7.97;;;3.63;;
68247;SDS011;55064;49.636;12.164;2023-07-20T06:37:31;8.05;;;3.95;;
68247;SDS011;55064;49.636;12.164;2023-07-20T06:39:57;7.87;;;3.90;;
68247;SDS011;55064;49.636;12.164;2023-07-20T06:42:23;7.17;;;3.70;;
68247;SDS011;55064;49.636;12.164;2023-07-20T06:44:48;7.33;;;3.73;;
68247;SDS011;55064;49.636;12.164;2023-07-20T06:47:13;7.97;;;3.50;;
68247;SDS011;55064;49.636;12.164;2023-07-20T06:49:41;8.65;;;4.00;;
68247;SDS011;55064;49.636;12.164;2023-07-20T06:52:07;8.00;;;3.83;;
68247;SDS011;55064;49.636;12.164;2023-07-20T06:54:32;8.73;;;3.77;;
68247;SDS011;55064;49.636;12.164;2023-07-20T06:56:57;6.40;;;3.30;;
68247;SDS011;55064;49.636;12.164;2023-07-20T06:59:23;6.20;;;3.10;;
68247;SDS011;55064;49.636;12.164;2023-07-20T07:01:51;8.43;;;3.95;;
68247;SDS011;55064;49.636;12.164;2023-07-20T07:04:19;7.33;;;3.20;;
68247;SDS011;55064;49.636;12.164;2023-07-20T07:06:44;6.97;;;3.35;;
68247;SDS011;55064;49.636;12.164;2023-07-20T07:09:10;6.43;;;2.90;;
68247;SDS011;55064;49.636;12.164;2023-07-20T07:11:37;6.28;;;3.05;;
68247;SDS011;55064;49.636;12.164;2023-07-20T07:14:03;5.90;;;2.90;;
68247;SDS011;55064;49.636;12.164;2023-07-20T07:16:28;8.07;;;3.20;;
68247;SDS011;55064;49.636;12.164;2023-07-20T07:18:54;6.87;;;3.20;;
68247;SDS011;55064;49.636;12.164;2023-07-20T07:21:19;8.27;;;3.10;;
68247;SDS011;55064;49.636;12.164;2023-07-20T07:23:45;7.20;;;3.20;;
68247;SDS011;55064;49.636;12.164;2023-07-20T07:26:14;6.28;;;2.85;;
68247;SDS011;55064;49.636;12.164;2023-07-20T07:28:39;6.10;;;3.03;;
68247;SDS011;55064;49.636;12.164;2023-07-20T07:31:07;7.07;;;3.40;;
68247;SDS011;55064;49.636;12.164;2023-07-20T07:33:33;8.05;;;2.97;;
68247;SDS011;55064;49.636;12.164;2023-07-20T07:35:59;7.22;;;2.97;;
68247;SDS011;55064;49.636;12.164;2023-07-20T07:38:25;7.43;;;3.07;;
68247;SDS011;55064;49.636;12.164;2023-07-20T07:40:51;6.97;;;3.10;;
68247;SDS011;55064;49.636;12.164;2023-07-20T07:43:18;7.63;;;3.40;;
68247;SDS011;55064;49.636;12.164;2023-07-20T07:45:53;7.57;;;2.92;;
68247;SDS011;55064;49.636;12.164;2023-07-20T07:48:19;5.60;;;3.10;;
68247;SDS011;55064;49.636;12.164;2023-07-20T07:50:47;5.97;;;3.00;;
68247;SDS011;55064;49.636;12.164;2023-07-20T07:53:13;7.25;;;3.20;;
68247;SDS011;55064;49.636;12.164;2023-07-20T07:55:38;6.70;;;3.00;;
68247;SDS011;55064;49.636;12.164;2023-07-20T07:58:06;6.60;;;3.00;;
68247;SDS011;55064;49.636;12.164;2023-07-20T08:00:33;7.65;;;2.70;;
68247;SDS011;55064;49.636;12.164;2023-07-20T08:03:00;7.10;;;3.00;;
68247;SDS011;55064;49.636;12.164;2023-07-20T08:05:28;9.95;;;3.22;;
68247;SDS011;55064;49.636;12.164;2023-07-20T08:07:55;5.95;;;2.78;;
68247;SDS011;55064;49.636;12.164;2023-07-20T08:10:22;7.63;;;3.30;;
68247;SDS011;55064;49.636;12.164;2023-07-20T08:12:47;6.43;;;2.80;;
68247;SDS011;55064;49.636;12.164;2023-07-20T08:15:13;7.40;;;2.60;;
68247;SDS011;55064;49.636;12.164;2023-07-20T08:17:42;6.35;;;2.92;;
68247;SDS011;55064;49.636;12.164;2023-07-20T08:20:10;7.32;;;2.88;;
68247;SDS011;55064;49.636;12.164;2023-07-20T08:22:42;6.13;;;2.60;;
68247;SDS011;55064;49.636;12.164;2023-07-20T08:25:08;5.32;;;2.30;;
68247;SDS011;55064;49.636;12.164;2023-07-20T08:27:34;5.77;;;2.37;;
68247;SDS011;55064;49.636;12.164;2023-07-20T08:30:00;7.00;;;2.75;;
68247;SDS011;55064;49.636;12.164;2023-07-20T08:32:26;5.20;;;2.50;;
68247;SDS011;55064;49.636;12.164;2023-07-20T08:34:52;5.70;;;2.50;;
68247;SDS011;55064;49.636;12.164;2023-07-20T08:37:18;5.20;;;2.35;;
68247;SDS011;55064;49.636;12.164;2023-07-20T08:39:47;5.43;;;2.10;;
68247;SDS011;55064;49.636;12.164;2023-07-20T08:42:13;5.03;;;1.90;;
68247;SDS011;55064;49.636;12.164;2023-07-20T08:44:39;5.93;;;2.50;;
68247;SDS011;55064;49.636;12.164;2023-07-20T08:47:10;6.05;;;2.40;;
68247;SDS011;55064;49.636;12.164;2023-07-20T08:49:37;6.53;;;2.30;;
68247;SDS011;55064;49.636;12.164;2023-07-20T08:52:05;6.10;;;2.33;;
68247;SDS011;55064;49.636;12.164;2023-07-20T08:54:31;7.10;;;2.20;;
68247;SDS011;55064;49.636;12.164;2023-07-20T08:57:03;5.43;;;2.10;;
68247;SDS011;55064;49.636;12.164;2023-07-20T08:59:32;8.80;;;2.40;;
68247;SDS011;55064;49.636;12.164;2023-07-20T09:02:01;5.47;;;2.08;;
68247;SDS011;55064;49.636;12.164;2023-07-20T09:04:27;5.10;;;2.20;;
68247;SDS011;55064;49.636;12.164;2023-07-20T09:06:52;5.80;;;2.03;;
68247;SDS011;55064;49.636;12.164;2023-07-20T09:09:20;6.23;;;2.43;;
68247;SDS011;55064;49.636;12.164;2023-07-20T09:11:47;6.68;;;2.25;;
68247;SDS011;55064;49.636;12.164;2023-07-20T09:14:14;5.15;;;2.28;;
68247;SDS011;55064;49.636;12.164;2023-07-20T09:16:51;6.67;;;2.00;;
68247;SDS011;55064;49.636;12.164;2023-07-20T09:19:22;5.50;;;1.98;;
68247;SDS011;55064;49.636;12.164;2023-07-20T09:21:48;5.33;;;2.23;;
68247;SDS011;55064;49.636;12.164;2023-07-20T09:24:16;5.25;;;2.30;;
68247;SDS011;55064;49.636;12.164;2023-07-20T09:26:46;5.93;;;2.33;;
68247;SDS011;55064;49.636;12.164;2023-07-20T09:29:17;6.22;;;2.15;;
68247;SDS011;55064;49.636;12.164;2023-07-20T09:31:43;5.97;;;2.13;;
68247;SDS011;55064;49.636;12.164;2023-07-20T09:34:24;5.35;;;2.40;;
68247;SDS011;55064;49.636;12.164;2023-07-20T09:36:49;7.00;;;2.20;;
68247;SDS011;55064;49.636;12.164;2023-07-20T09:39:18;5.07;;;2.25;;
68247;SDS011;55064;49.636;12.164;2023-07-20T09:41:44;5.00;;;1.83;;
68247;SDS011;55064;49.636;12.164;2023-07-20T09:44:13;4.90;;;1.97;;
68247;SDS011;55064;49.636;12.164;2023-07-20T09:46:46;5.75;;;2.17;;
68247;SDS011;55064;49.636;12.164;2023-07-20T09:49:13;7.38;;;2.40;;
68247;SDS011;55064;49.636;12.164;2023-07-20T09:51:43;5.95;;;2.40;;
68247;SDS011;55064;49.636;12.164;2023-07-20T09:54:13;4.83;;;2.40;;
68247;SDS011;55064;49.636;12.164;2023-07-20T09:56:38;6.28;;;2.78;;
68247;SDS011;55064;49.636;12.164;2023-07-20T09:59:05;6.88;;;2.60;;
68247;SDS011;55064;49.636;12.164;2023-07-20T10:01:32;7.33;;;2.60;;
68247;SDS011;55064;49.636;12.164;2023-07-20T10:04:07;5.50;;;2.08;;
68247;SDS011;55064;49.636;12.164;2023-07-20T10:06:34;5.10;;;2.10;;
68247;SDS011;55064;49.636;12.164;2023-07-20T10:09:04;6.47;;;2.00;;
68247;SDS011;55064;49.636;12.164;2023-07-20T10:11:33;5.50;;;2.10;;
68247;SDS011;55064;49.636;12.164;2023-07-20T10:14:02;6.03;;;2.33;;
68247;SDS011;55064;49.636;12.164;2023-07-20T10:16:32;5.53;;;2.25;;
68247;SDS011;55064;49.636;12.164;2023-07-20T10:19:15;5.57;;;2.20;;
68247;SDS011;55064;49.636;12.164;2023-07-20T10:21:47;6.47;;;2.50;;
68247;SDS011;55064;49.636;12.164;2023-07-20T10:24:15;5.17;;;2.10;;
68247;SDS011;55064;49.636;12.164;2023-07-20T10:26:42;5.55;;;2.20;;
68247;SDS011;55064;49.636;12.164;2023-07-20T10:29:07;4.63;;;2.23;;
68247;SDS011;55064;49.636;12.164;2023-07-20T10:31:34;5.18;;;2.13;;
68247;SDS011;55064;49.636;12.164;2023-07-20T10:34:00;7.35;;;2.03;;
68247;SDS011;55064;49.636;12.164;2023-07-20T10:36:29;5.97;;;2.20;;
68247;SDS011;55064;49.636;12.164;2023-07-20T10:38:55;5.75;;;2.28;;
68247;SDS011;55064;49.636;12.164;2023-07-20T10:41:33;5.87;;;2.30;;
68247;SDS011;55064;49.636;12.164;2023-07-20T10:44:01;6.32;;;2.20;;
68247;SDS011;55064;49.636;12.164;2023-07-20T10:46:48;6.07;;;2.35;;
68247;SDS011;55064;49.636;12.164;2023-07-20T10:49:15;5.30;;;2.17;;
68247;SDS011;55064;49.636;12.164;2023-07-20T10:56:41;6.32;;;2.00;;
68247;SDS011;55064;49.636;12.164;2023-07-20T10:59:17;5.93;;;2.00;;
68247;SDS011;55064;49.636;12.164;2023-07-20T11:02:06;5.20;;;2.28;;
68247;SDS011;55064;49.636;12.164;2023-07-20T11:07:11;5.85;;;2.30;;
68247;SDS011;55064;49.636;12.164;2023-07-20T11:09:41;6.20;;;1.77;;
68247;SDS011;55064;49.636;12.164;2023-07-20T11:14:36;6.30;;;1.92;;
68247;SDS011;55064;49.636;12.164;2023-07-20T11:17:14;4.70;;;1.93;;
68247;SDS011;55064;49.636;12.164;2023-07-20T11:19:40;6.13;;;1.80;;
68247;SDS011;55064;49.636;12.164;2023-07-20T11:22:07;4.30;;;1.75;;
68247;SDS011;55064;49.636;12.164;2023-07-20T11:24:34;4.18;;;1.70;;
68247;SDS011;55064;49.636;12.164;2023-07-20T11:27:00;6.30;;;1.93;;
68247;SDS011;55064;49.636;12.164;2023-07-20T11:29:26;5.03;;;1.70;;
68247;SDS011;55064;49.636;12.164;2023-07-20T11:31:54;4.97;;;1.90;;
68247;SDS011;55064;49.636;12.164;2023-07-20T11:34:26;5.53;;;1.90;;
68247;SDS011;55064;49.636;12.164;2023-07-20T11:36:52;5.37;;;1.87;;
68247;SDS011;55064;49.636;12.164;2023-07-20T11:39:18;4.75;;;1.63;;
68247;SDS011;55064;49.636;12.164;2023-07-20T11:41:48;7.80;;;1.80;;
68247;SDS011;55064;49.636;12.164;2023-07-20T11:44:18;6.50;;;2.00;;
68247;SDS011;55064;49.636;12.164;2023-07-20T11:46:53;4.63;;;1.70;;
68247;SDS011;55064;49.636;12.164;2023-07-20T11:49:25;5.80;;;1.90;;
68247;SDS011;55064;49.636;12.164;2023-07-20T11:51:51;4.45;;;1.77;;
68247;SDS011;55064;49.636;12.164;2023-07-20T11:54:17;5.63;;;1.90;;
68247;SDS011;55064;49.636;12.164;2023-07-20T11:56:45;4.32;;;1.80;;
68247;SDS011;55064;49.636;12.164;2023-07-20T11:59:10;5.03;;;1.90;;
68247;SDS011;55064;49.636;12.164;2023-07-20T12:01:37;7.25;;;1.67;;
68247;SDS011;55064;49.636;12.164;2023-07-20T12:04:05;6.25;;;1.80;;
68247;SDS011;55064;49.636;12.164;2023-07-20T12:06:33;4.15;;;1.50;;
68247;SDS011;55064;49.636;12.164;2023-07-20T12:08:58;4.53;;;1.60;;
68247;SDS011;55064;49.636;12.164;2023-07-20T12:13:58;5.05;;;1.80;;
68247;SDS011;55064;49.636;12.164;2023-07-20T12:16:26;4.80;;;1.52;;
68247;SDS011;55064;49.636;12.164;2023-07-20T12:18:58;4.65;;;1.90;;
68247;SDS011;55064;49.636;12.164;2023-07-20T12:21:29;4.27;;;1.50;;
68247;SDS011;55064;49.636;12.164;2023-07-20T12:23:56;5.22;;;1.80;;
68247;SDS011;55064;49.636;12.164;2023-07-20T12:26:23;7.25;;;1.73;;
68247;SDS011;55064;49.636;12.164;2023-07-20T12:28:52;5.50;;;1.80;;
68247;SDS011;55064;49.636;12.164;2023-07-20T12:31:18;6.10;;;1.90;;
68247;SDS011;55064;49.636;12.164;2023-07-20T12:33:46;5.00;;;1.60;;
68247;SDS011;55064;49.636;12.164;2023-07-20T12:36:12;4.47;;;1.60;;
68247;SDS011;55064;49.636;12.164;2023-07-20T12:38:38;4.67;;;1.60;;
68247;SDS011;55064;49.636;12.164;2023-07-20T12:41:03;4.15;;;1.42;;
68247;SDS011;55064;49.636;12.164;2023-07-20T12:43:32;4.70;;;1.70;;
68247;SDS011;55064;49.636;12.164;2023-07-20T12:45:58;5.25;;;1.80;;
68247;SDS011;55064;49.636;12.164;2023-07-20T12:48:24;6.87;;;1.77;;
68247;SDS011;55064;49.636;12.164;2023-07-20T12:50:54;5.00;;;1.83;;
68247;SDS011;55064;49.636;12.164;2023-07-20T12:53:20;4.00;;;1.40;;
68247;SDS011;55064;49.636;12.164;2023-07-20T12:55:46;5.15;;;1.88;;
68247;SDS011;55064;49.636;12.164;2023-07-20T12:58:14;5.13;;;1.60;;
68247;SDS011;55064;49.636;12.164;2023-07-20T13:00:40;5.32;;;1.60;;
68247;SDS011;55064;49.636;12.164;2023-07-20T13:03:06;5.63;;;1.70;;
68247;SDS011;55064;49.636;12.164;2023-07-20T13:05:33;5.55;;;1.63;;
68247;SDS011;55064;49.636;12.164;2023-07-20T13:07:59;5.60;;;1.65;;
68247;SDS011;55064;49.636;12.164;2023-07-20T13:10:25;4.43;;;1.60;;
68247;SDS011;55064;49.636;12.164;2023-07-20T13:12:51;4.90;;;1.83;;
68247;SDS011;55064;49.636;12.164;2023-07-20T13:15:17;5.28;;;1.58;;
68247;SDS011;55064;49.636;12.164;2023-07-20T13:17:42;4.27;;;1.80;;
68247;SDS011;55064;49.636;12.164;2023-07-20T13:20:11;4.68;;;1.60;;
68247;SDS011;55064;49.636;12.164;2023-07-20T13:22:37;8.95;;;2.10;;
68247;SDS011;55064;49.636;12.164;2023-07-20T13:25:06;4.32;;;1.80;;
68247;SDS011;55064;49.636;12.164;2023-07-20T13:27:32;5.43;;;1.60;;
68247;SDS011;55064;49.636;12.164;2023-07-20T13:29:58;5.55;;;1.80;;
68247;SDS011;55064;49.636;12.164;2023-07-20T13:32:25;6.68;;;1.65;;
68247;SDS011;55064;49.636;12.164;2023-07-20T13:34:51;4.10;;;1.60;;
68247;SDS011;55064;49.636;12.164;2023-07-20T13:37:17;5.10;;;1.60;;
68247;SDS011;55064;49.636;12.164;2023-07-20T13:39:42;4.57;;;1.70;;
68247;SDS011;55064;49.636;12.164;2023-07-20T13:42:08;5.03;;;1.40;;
68247;SDS011;55064;49.636;12.164;2023-07-20T13:44:34;10.40;;;2.90;;
68247;SDS011;55064;49.636;12.164;2023-07-20T13:47:00;10.13;;;2.10;;
68247;SDS011;55064;49.636;12.164;2023-07-20T13:49:28;5.90;;;1.90;;
68247;SDS011;55064;49.636;12.164;2023-07-20T13:51:55;7.53;;;1.83;;
68247;SDS011;55064;49.636;12.164;2023-07-20T13:54:21;5.60;;;1.65;;
68247;SDS011;55064;49.636;12.164;2023-07-20T13:56:46;4.70;;;1.80;;
68247;SDS011;55064;49.636;12.164;2023-07-20T13:59:12;8.63;;;1.67;;
68247;SDS011;55064;49.636;12.164;2023-07-20T14:01:37;4.83;;;1.60;;
68247;SDS011;55064;49.636;12.164;2023-07-20T14:04:05;4.20;;;1.40;;
68247;SDS011;55064;49.636;12.164;2023-07-20T14:06:30;5.23;;;1.73;;
68247;SDS011;55064;49.636;12.164;2023-07-20T14:08:59;4.35;;;1.60;;
68247;SDS011;55064;49.636;12.164;2023-07-20T14:11:25;3.60;;;1.30;;
68247;SDS011;55064;49.636;12.164;2023-07-20T14:13:51;4.53;;;1.52;;
68247;SDS011;55064;49.636;12.164;2023-07-20T14:16:25;4.60;;;1.60;;
68247;SDS011;55064;49.636;12.164;2023-07-20T14:18:51;4.00;;;1.25;;
68247;SDS011;55064;49.636;12.164;2023-07-20T14:21:17;5.45;;;1.80;;
68247;SDS011;55064;49.636;12.164;2023-07-20T14:23:48;4.33;;;1.70;;
68247;SDS011;55064;49.636;12.164;2023-07-20T14:26:20;6.57;;;1.70;;
68247;SDS011;55064;49.636;12.164;2023-07-20T14:28:46;4.68;;;1.52;;
68247;SDS011;55064;49.636;12.164;2023-07-20T14:31:11;5.67;;;1.73;;
68247;SDS011;55064;49.636;12.164;2023-07-20T14:33:37;6.07;;;1.88;;
68247;SDS011;55064;49.636;12.164;2023-07-20T14:36:02;7.10;;;1.90;;
68247;SDS011;55064;49.636;12.164;2023-07-20T14:38:28;4.95;;;1.73;;
68247;SDS011;55064;49.636;12.164;2023-07-20T14:40:55;4.80;;;1.87;;
68247;SDS011;55064;49.636;12.164;2023-07-20T14:43:20;7.30;;;1.60;;
68247;SDS011;55064;49.636;12.164;2023-07-20T14:45:48;5.03;;;1.80;;
68247;SDS011;55064;49.636;12.164;2023-07-20T14:48:13;5.13;;;1.90;;
68247;SDS011;55064;49.636;12.164;2023-07-20T14:50:39;4.80;;;1.60;;
68247;SDS011;55064;49.636;12.164;2023-07-20T14:53:04;7.30;;;1.80;;
68247;SDS011;55064;49.636;12.164;2023-07-20T14:55:30;4.33;;;1.60;;
68247;SDS011;55064;49.636;12.164;2023-07-20T14:57:55;5.30;;;1.60;;
68247;SDS011;55064;49.636;12.164;2023-07-20T15:00:21;4.83;;;1.80;;
68247;SDS011;55064;49.636;12.164;2023-07-20T15:02:46;4.53;;;2.00;;
68247;SDS011;55064;49.636;12.164;2023-07-20T15:05:12;4.80;;;1.60;;
68247;SDS011;55064;49.636;12.164;2023-07-20T15:07:46;6.43;;;1.83;;